Time;durP1;ratioP1;P1;durP2;ratioP2;P2;SDS_P1;SDS_P2;PMS_P1;PMS_P2;Temp;Humidity;BMP_temperature;BMP_pressure;BME280_temperature;BME280_humidity;BME280_pressure;Samples;Min_cycle;Max_cycle;Signal;HPM_P1;HPM_P2
2022/01/09 00:00:45;;;;;;;;;;;;;;;-12.74;61.22;97482.41;6375082;27;20392;-63
2022/01/09 00:03:48;;;;;;;;;;;;;;;-12.66;60.76;97475.09;6375082;27;19923;-63
2022/01/09 00:06:51;;;;;;;;;;;;;;;-12.55;60.65;97478.00;6374885;27;20307;-64
2022/01/09 00:09:56;;;;;;;;;;;;;;;-12.55;60.25;97483.06;6375117;27;19923;-63
2022/01/09 00:12:58;;;;;;;;;;;;;;;-12.59;60.09;97501.53;6373944;27;20304;-64
2022/01/09 00:16:02;;;;;;;;;;;;;;;-12.73;60.34;97522.16;6374986;27;20419;-63
2022/01/09 00:19:07;;;;;;;;;;;;;;;-12.85;60.72;97539.44;6374799;27;19923;-63
2022/01/09 00:22:12;;;;;;;;;;;;;;;-12.69;60.72;97549.34;6374475;27;19923;-63
2022/01/09 00:25:14;;;;;;;;;;;;;;;-12.71;60.23;97576.31;6373665;27;19924;-63
2022/01/09 00:28:15;;;;;;;;;;;;;;;-12.62;60.17;97587.56;6373911;27;19923;-63
2022/01/09 00:31:21;;;;;;;;;;;;;;;-12.69;59.69;97572.16;6374551;27;20300;-63
2022/01/09 00:34:22;;;;;;;;;;;;;;;-13.05;60.47;97570.78;6374423;27;20403;-65
2022/01/09 00:37:25;;;;;;;;;;;;;;;-13.04;60.74;97567.44;6374369;27;20022;-63
2022/01/09 00:40:26;;;;;;;;;;;;;;;-13.31;61.10;97555.47;6374333;27;19946;-64
2022/01/09 00:43:27;;;;;;;;;;;;;;;-13.09;60.36;97558.81;6373527;27;19924;-63
2022/01/09 00:46:33;;;;;;;;;;;;;;;-13.16;60.42;97553.50;6374053;27;20022;-63
2022/01/09 00:49:34;;;;;;;;;;;;;;;-13.03;60.29;97548.91;6373123;27;19923;-63
2022/01/09 00:52:35;;;;;;;;;;;;;;;-13.18;60.35;97560.19;6373140;27;19931;-64
2022/01/09 00:55:39;;;;;;;;;;;;;;;-13.31;61.00;97568.13;6373909;27;19923;-64
2022/01/09 00:58:42;;;;;;;;;;;;;;;-12.98;60.64;97578.66;6373573;27;19927;-64
2022/01/09 01:01:46;;;;;;;;;;;;;;;-13.23;60.34;97586.13;6373575;27;19924;-64
2022/01/09 01:04:51;;;;;;;;;;;;;;;-13.02;60.73;97601.28;6373606;27;19928;-64
2022/01/09 01:07:52;;;;;;;;;;;;;;;-13.26;61.16;97627.41;6372766;27;20323;-63
2022/01/09 01:10:53;;;;;;;;;;;;;;;-12.90;60.18;97635.56;6373542;27;19923;-62
2022/01/09 01:13:57;;;;;;;;;;;;;;;-12.89;59.66;97631.34;6355699;27;19928;-64
2022/01/09 01:17:03;;;;;;;;;;;;;;;-13.12;60.22;97625.41;6372773;27;19924;-63
2022/01/09 01:20:05;;;;;;;;;;;;;;;-13.34;59.78;97613.59;6373082;27;19931;-64
2022/01/09 01:23:06;;;;;;;;;;;;;;;-13.65;61.23;97602.22;6372481;27;19924;-62
2022/01/09 01:26:09;;;;;;;;;;;;;;;-13.84;61.63;97594.69;6373240;27;20304;-63
2022/01/09 01:29:13;;;;;;;;;;;;;;;-13.81;61.75;97592.31;6373067;27;19927;-63
2022/01/09 01:32:16;;;;;;;;;;;;;;;-13.74;61.80;97594.25;6372175;27;19932;-63
2022/01/09 01:35:17;;;;;;;;;;;;;;;-13.75;61.53;97590.03;6372990;27;19924;-63
2022/01/09 01:38:21;;;;;;;;;;;;;;;-13.71;62.21;97614.63;6372949;27;19923;-63
2022/01/09 01:41:22;;;;;;;;;;;;;;;-13.71;61.77;97628.94;6371833;27;19923;-63
2022/01/09 01:44:23;;;;;;;;;;;;;;;-13.82;62.17;97648.75;6371676;27;19979;-63
2022/01/09 01:47:24;;;;;;;;;;;;;;;-13.43;61.89;97659.66;6371859;27;20397;-63
2022/01/09 01:50:25;;;;;;;;;;;;;;;-13.40;61.00;97674.09;6371779;27;19923;-64
2022/01/09 01:53:29;;;;;;;;;;;;;;;-13.59;61.27;97673.31;6371788;27;20015;-63
2022/01/09 01:56:30;;;;;;;;;;;;;;;-13.80;61.50;97672.44;6372549;27;19923;-63
2022/01/09 01:59:34;;;;;;;;;;;;;;;-13.77;61.92;97680.16;6372422;27;19927;-63
2022/01/09 02:02:35;;;;;;;;;;;;;;;-13.90;62.07;97680.44;6371239;27;20308;-63
2022/01/09 02:05:43;;;;;;;;;;;;;;;-14.08;62.48;97691.47;6371620;27;20347;-63
2022/01/09 02:08:44;;;;;;;;;;;;;;;-13.87;62.40;97695.72;6371163;27;19929;-63
2022/01/09 02:11:46;;;;;;;;;;;;;;;-13.79;61.70;97704.53;6371259;27;19923;-62
2022/01/09 02:14:48;;;;;;;;;;;;;;;-13.77;62.16;97725.69;6371286;27;19923;-64
2022/01/09 02:17:49;;;;;;;;;;;;;;;-13.86;62.00;97740.50;6371214;27;19932;-63
2022/01/09 02:20:51;;;;;;;;;;;;;;;-13.42;61.40;97751.66;6371801;27;19934;-63
2022/01/09 02:23:52;;;;;;;;;;;;;;;-13.49;61.60;97760.66;6371163;27;19923;-62
2022/01/09 02:26:53;;;;;;;;;;;;;;;-13.61;61.53;97766.06;6371731;27;19923;-63
2022/01/09 02:29:54;;;;;;;;;;;;;;;-13.35;61.03;97761.25;6371730;27;19930;-64
2022/01/09 02:32:55;;;;;;;;;;;;;;;-13.48;60.84;97756.44;6353259;28;19930;-64
2022/01/09 02:35:58;;;;;;;;;;;;;;;-13.84;61.30;97746.47;6371806;28;20385;-62
2022/01/09 02:39:00;;;;;;;;;;;;;;;-14.25;62.13;97748.03;6371051;28;19924;-63
2022/01/09 02:42:01;;;;;;;;;;;;;;;-14.38;62.73;97750.78;6370899;28;19934;-63
2022/01/09 02:45:02;;;;;;;;;;;;;;;-14.27;62.72;97754.66;6371247;28;19946;-63
2022/01/09 02:48:05;;;;;;;;;;;;;;;-14.16;63.07;97761.06;6371653;28;19923;-63
2022/01/09 02:51:13;;;;;;;;;;;;;;;-14.36;63.16;97774.47;6370842;28;20304;-63
2022/01/09 02:57:40;;;;;;;;;;;;;;;-14.62;63.41;97791.84;6371556;28;20419;-63
2022/01/09 03:00:43;;;;;;;;;;;;;;;-14.25;63.83;97786.81;6371411;28;20307;-64
2022/01/09 03:03:44;;;;;;;;;;;;;;;-14.07;63.11;97789.28;6370763;28;19923;-63
2022/01/09 03:06:47;;;;;;;;;;;;;;;-13.89;62.96;97793.47;6371273;28;20010;-63
2022/01/09 03:09:48;;;;;;;;;;;;;;;-13.74;62.16;97799.22;6370472;28;19923;-62
2022/01/09 03:12:52;;;;;;;;;;;;;;;-13.78;61.75;97801.53;6371282;28;20071;-63
2022/01/09 03:15:53;;;;;;;;;;;;;;;-13.73;61.20;97803.47;6371251;28;20012;-63
2022/01/09 03:18:57;;;;;;;;;;;;;;;-13.60;60.78;97808.28;6371061;28;19999;-63
2022/01/09 03:21:58;;;;;;;;;;;;;;;-13.57;60.19;97821.06;6373508;27;19934;-64
2022/01/09 03:24:59;;;;;;;;;;;;;;;-13.46;59.85;97824.06;6376052;27;19963;-63
2022/01/09 03:28:01;;;;;;;;;;;;;;;-13.57;59.87;97812.59;6375823;27;20328;-63
2022/01/09 03:31:02;;;;;;;;;;;;;;;-13.42;60.38;97822.53;6375156;27;19923;-64
2022/01/09 03:34:05;;;;;;;;;;;;;;;-13.20;58.68;97820.09;6375743;27;19923;-63
2022/01/09 03:37:06;;;;;;;;;;;;;;;-13.49;59.53;97830.66;6374805;27;19930;-64
2022/01/09 03:40:09;;;;;;;;;;;;;;;-13.46;59.81;97841.78;6375743;27;19923;-63
2022/01/09 03:43:10;;;;;;;;;;;;;;;-13.25;59.50;97841.81;6374762;27;20388;-62
2022/01/09 03:46:11;;;;;;;;;;;;;;;-13.36;59.75;97858.22;6374515;27;20060;-63
2022/01/09 03:49:13;;;;;;;;;;;;;;;-13.69;60.16;97860.16;6374996;27;19930;-63
2022/01/09 03:52:17;;;;;;;;;;;;;;;-13.75;60.91;97864.94;6374124;27;19930;-63
2022/01/09 03:55:19;;;;;;;;;;;;;;;-13.76;61.16;97876.69;6374745;27;19923;-64
2022/01/09 03:58:20;;;;;;;;;;;;;;;-13.85;61.02;97877.16;6374106;27;19927;-63
2022/01/09 04:01:21;;;;;;;;;;;;;;;-13.94;61.83;97880.94;6375350;27;19924;-63
2022/01/09 04:04:27;;;;;;;;;;;;;;;-14.14;62.23;97873.28;6357767;27;19923;-63
2022/01/09 04:07:29;;;;;;;;;;;;;;;-14.33;62.71;97875.72;6374338;27;20338;-63
2022/01/09 04:10:40;;;;;;;;;;;;;;;-13.82;61.78;97889.06;6374825;27;20404;-63
2022/01/09 04:13:41;;;;;;;;;;;;;;;-13.77;61.34;97897.75;6374674;27;20014;-64
2022/01/09 04:16:43;;;;;;;;;;;;;;;-13.50;61.37;97905.75;6374128;27;19952;-63
2022/01/09 04:19:44;;;;;;;;;;;;;;;-13.47;60.91;97910.06;6373661;27;19923;-63
2022/01/09 04:22:45;;;;;;;;;;;;;;;-13.58;60.89;97910.47;6373820;27;19923;-64
2022/01/09 04:25:49;;;;;;;;;;;;;;;-13.49;60.66;97920.13;6374086;27;20208;-63
2022/01/09 04:28:52;;;;;;;;;;;;;;;-13.51;60.96;97918.31;6374405;27;19923;-64
2022/01/09 04:31:55;;;;;;;;;;;;;;;-13.54;60.26;97924.13;6373107;27;20389;-64
2022/01/09 04:34:56;;;;;;;;;;;;;;;-13.45;60.73;97928.72;6373489;27;19924;-63
2022/01/09 04:38:00;;;;;;;;;;;;;;;-13.45;60.34;97938.84;6374282;27;19923;-63
2022/01/09 04:41:06;;;;;;;;;;;;;;;-13.50;60.40;97940.28;6356340;27;19923;-63
2022/01/09 04:44:10;;;;;;;;;;;;;;;-13.42;60.31;97937.31;6373924;27;19927;-63
2022/01/09 04:47:15;;;;;;;;;;;;;;;-13.36;60.06;97939.25;6373333;27;19923;-63
2022/01/09 04:50:22;;;;;;;;;;;;;;;-13.42;59.55;97954.19;6373147;27;19927;-64
2022/01/09 04:53:23;;;;;;;;;;;;;;;-13.42;59.08;97959.25;6373057;27;19931;-64
2022/01/09 04:56:24;;;;;;;;;;;;;;;-13.23;59.37;97966.84;6372706;27;19923;-64
2022/01/09 04:59:25;;;;;;;;;;;;;;;-13.11;59.24;97961.47;6372850;27;19924;-63
2022/01/09 05:02:31;;;;;;;;;;;;;;;-13.14;58.94;97964.72;6373446;27;19931;-63
2022/01/09 05:05:35;;;;;;;;;;;;;;;-13.13;58.66;97965.59;6372533;27;19930;-63
2022/01/09 05:08:39;;;;;;;;;;;;;;;-13.14;58.95;97962.19;6373301;27;19923;-64
2022/01/09 05:11:40;;;;;;;;;;;;;;;-13.21;59.34;97965.25;6372803;27;20384;-63
2022/01/09 05:14:41;;;;;;;;;;;;;;;-13.06;59.00;97959.13;6372766;27;19923;-62
2022/01/09 05:17:47;;;;;;;;;;;;;;;-12.97;59.02;97964.59;6373088;27;20392;-64
2022/01/09 05:20:48;;;;;;;;;;;;;;;-12.88;58.58;97987.81;6372337;27;19923;-64
2022/01/09 05:23:49;;;;;;;;;;;;;;;-12.79;58.56;97993.31;6373000;27;19923;-64
2022/01/09 05:26:53;;;;;;;;;;;;;;;-12.73;58.21;97983.44;6372741;27;19930;-63
2022/01/09 05:29:57;;;;;;;;;;;;;;;-12.72;58.39;98002.03;6372054;27;19923;-64
2022/01/09 05:33:00;;;;;;;;;;;;;;;-12.74;58.32;97993.47;6372102;27;19931;-64
2022/01/09 05:36:04;;;;;;;;;;;;;;;-12.61;57.74;98005.03;6372187;27;19927;-65
2022/01/09 05:39:08;;;;;;;;;;;;;;;-12.63;57.35;98001.56;6372667;27;19923;-64
2022/01/09 05:42:14;;;;;;;;;;;;;;;-12.66;57.87;98014.97;6372892;27;20304;-64
2022/01/09 05:45:17;;;;;;;;;;;;;;;-12.43;57.13;98004.16;6370865;27;19923;-63
2022/01/09 05:48:53;;;;;;;;;;;;;;;-12.36;57.13;98017.13;6372778;27;19923;-63
2022/01/09 05:51:57;;;;;;;;;;;;;;;-12.13;56.23;98030.78;6372634;27;20393;-63
2022/01/09 05:55:00;;;;;;;;;;;;;;;-12.21;56.34;98033.84;6371646;27;19937;-64
2022/01/09 05:58:02;;;;;;;;;;;;;;;-12.42;56.95;98035.47;6371140;27;19923;-64
2022/01/09 06:01:05;;;;;;;;;;;;;;;-12.35;57.25;98029.84;6370973;27;20026;-64
2022/01/09 06:04:06;;;;;;;;;;;;;;;-12.50;57.93;98039.34;6371941;27;19976;-65
2022/01/09 06:07:09;;;;;;;;;;;;;;;-12.18;57.30;98027.16;6372027;27;19924;-63
2022/01/09 06:10:11;;;;;;;;;;;;;;;-11.82;55.52;98038.81;6371272;27;20011;-65
2022/01/09 06:13:19;;;;;;;;;;;;;;;-11.68;54.71;98038.50;6371888;27;20414;-63
2022/01/09 06:16:25;;;;;;;;;;;;;;;-11.32;53.88;98034.91;6371896;27;19927;-63
2022/01/09 06:19:28;;;;;;;;;;;;;;;-11.32;53.82;98046.75;6371776;27;20018;-64
2022/01/09 06:22:30;;;;;;;;;;;;;;;-11.23;53.13;98041.16;6370056;27;19923;-64
2022/01/09 06:25:31;;;;;;;;;;;;;;;-11.17;53.50;98056.63;6371469;27;20317;-62
2022/01/09 06:28:32;;;;;;;;;;;;;;;-10.96;52.79;98067.59;6371094;27;19923;-63
2022/01/09 06:31:35;;;;;;;;;;;;;;;-10.78;52.52;98081.81;6370962;27;19927;-64
2022/01/09 06:34:40;;;;;;;;;;;;;;;-10.67;51.83;98075.47;6370223;28;19924;-64
2022/01/09 06:37:41;;;;;;;;;;;;;;;-10.55;51.65;98070.84;6371022;28;20273;-64
2022/01/09 06:40:42;;;;;;;;;;;;;;;-10.47;51.30;98069.47;6370683;28;19934;-64
2022/01/09 06:43:44;;;;;;;;;;;;;;;-10.35;50.78;98068.16;6370740;28;19923;-63
2022/01/09 06:46:47;;;;;;;;;;;;;;;-10.44;50.72;98074.66;6353138;28;20294;-64
2022/01/09 06:49:48;;;;;;;;;;;;;;;-10.45;50.72;98083.06;6371367;28;20407;-64
2022/01/09 06:52:51;;;;;;;;;;;;;;;-10.48;50.27;98082.97;6371991;28;19927;-63
2022/01/09 06:55:52;;;;;;;;;;;;;;;-10.54;50.34;98090.38;6374241;27;19955;-64
2022/01/09 06:58:58;;;;;;;;;;;;;;;-10.66;50.28;98087.38;6376585;27;19924;-64
2022/01/09 07:02:02;;;;;;;;;;;;;;;-10.72;50.75;98094.78;6376314;27;19923;-64
2022/01/09 07:05:03;;;;;;;;;;;;;;;-10.82;51.32;98100.31;6375401;27;19931;-64
2022/01/09 07:08:07;;;;;;;;;;;;;;;-10.53;49.83;98107.41;6375562;27;19923;-64
2022/01/09 07:11:08;;;;;;;;;;;;;;;-10.58;50.05;98108.91;6375462;27;19923;-63
2022/01/09 07:14:09;;;;;;;;;;;;;;;-10.50;49.97;98110.06;6376162;27;19953;-63
2022/01/09 07:17:10;;;;;;;;;;;;;;;-10.47;49.85;98096.59;6376051;27;19932;-64
2022/01/09 07:20:11;;;;;;;;;;;;;;;-10.39;49.31;98105.34;6375754;27;19924;-64
2022/01/09 07:23:12;;;;;;;;;;;;;;;-10.33;48.90;98109.78;6375230;27;19929;-64
2022/01/09 07:26:13;;;;;;;;;;;;;;;-9.53;47.85;98088.81;6375146;27;20419;-63
2022/01/09 07:29:17;;;;;;;;;;;;;;;-6.11;42.84;98097.09;6375665;27;19924;-64
2022/01/09 07:32:18;;;;;;;;;;;;;;;-2.55;35.81;98091.53;6375468;27;19930;-64
2022/01/09 07:35:22;;;;;;;;;;;;;;;0.08;30.83;98092.78;6375388;27;19923;-64
2022/01/09 07:38:23;;;;;;;;;;;;;;;1.96;28.71;98101.78;6374802;27;19934;-64
2022/01/09 07:41:25;;;;;;;;;;;;;;;3.72;26.27;98113.16;6374347;27;19923;-63
2022/01/09 07:44:28;;;;;;;;;;;;;;;4.97;24.81;98114.13;6374742;27;19930;-63
2022/01/09 07:47:29;;;;;;;;;;;;;;;6.06;23.92;98112.34;6374665;27;19923;-63
2022/01/09 07:50:32;;;;;;;;;;;;;;;7.71;23.79;98127.41;6374848;27;20060;-64
2022/01/09 07:53:35;;;;;;;;;;;;;;;9.59;22.89;98130.09;6374294;27;19930;-64
2022/01/09 07:56:41;;;;;;;;;;;;;;;11.07;18.70;98137.72;6375028;27;20422;-63
2022/01/09 07:59:45;;;;;;;;;;;;;;;11.34;20.07;98139.97;6374731;27;19923;-63
2022/01/09 08:02:46;;;;;;;;;;;;;;;10.74;18.87;98146.22;6373907;27;19954;-64
2022/01/09 08:05:50;;;;;;;;;;;;;;;10.19;17.45;98130.22;6374261;27;20334;-64
2022/01/09 08:08:56;;;;;;;;;;;;;;;9.65;17.36;98132.50;6374595;27;19923;-63
2022/01/09 08:11:57;;;;;;;;;;;;;;;9.79;17.38;98129.25;6374918;27;19923;-63
2022/01/09 08:14:58;;;;;;;;;;;;;;;8.96;16.86;98134.34;6374708;27;20332;-63
2022/01/09 08:18:04;;;;;;;;;;;;;;;8.41;17.06;98137.25;6356861;27;19923;-63
2022/01/09 08:21:08;;;;;;;;;;;;;;;8.82;17.76;98140.13;6373736;27;19924;-64
2022/01/09 08:24:14;;;;;;;;;;;;;;;9.77;16.51;98136.38;6374408;27;19923;-64
2022/01/09 08:27:15;;;;;;;;;;;;;;;10.53;16.27;98132.25;6355334;27;19930;-64
2022/01/09 08:30:18;;;;;;;;;;;;;;;10.56;16.12;98128.66;6374094;27;19927;-64
2022/01/09 08:33:24;;;;;;;;;;;;;;;10.36;14.74;98133.91;6374481;27;19945;-63
2022/01/09 08:36:25;;;;;;;;;;;;;;;9.49;16.23;98141.06;6373304;27;20291;-63
2022/01/09 08:39:26;;;;;;;;;;;;;;;9.66;15.35;98143.84;6373265;27;19930;-63
2022/01/09 08:42:32;;;;;;;;;;;;;;;9.37;16.07;98148.50;6374253;27;19935;-63
2022/01/09 08:45:35;;;;;;;;;;;;;;;10.13;16.83;98151.50;6373608;27;20052;-64
2022/01/09 08:48:39;;;;;;;;;;;;;;;11.40;15.08;98150.22;6373619;27;19923;-63
2022/01/09 08:51:43;;;;;;;;;;;;;;;11.61;14.52;98146.56;6374381;27;20299;-63
2022/01/09 08:54:44;;;;;;;;;;;;;;;11.80;15.37;98153.53;6354778;27;19923;-65
2022/01/09 08:57:50;;;;;;;;;;;;;;;12.27;14.45;98153.81;6372680;27;19930;-62
2022/01/09 09:00:51;;;;;;;;;;;;;;;12.38;14.66;98140.09;6372935;27;19931;-64
2022/01/09 09:03:52;;;;;;;;;;;;;;;13.18;15.61;98141.09;6372275;27;20385;-63
2022/01/09 09:06:53;;;;;;;;;;;;;;;13.08;13.94;98131.97;6372724;27;19923;-63
2022/01/09 09:10:03;;;;;;;;;;;;;;;13.65;13.79;98121.75;6373216;27;19927;-63
2022/01/09 09:13:04;;;;;;;;;;;;;;;14.48;15.72;98119.50;6372335;27;20069;-63
2022/01/09 09:16:09;;;;;;;;;;;;;;;14.94;13.38;98121.97;6373170;27;19924;-64
2022/01/09 09:19:14;;;;;;;;;;;;;;;15.44;15.11;98131.19;6372054;27;19923;-65
2022/01/09 09:22:18;;;;;;;;;;;;;;;14.10;14.97;98112.06;6354695;27;19924;-62
2022/01/09 09:25:19;;;;;;;;;;;;;;;12.66;14.54;98106.97;6354553;27;19923;-64
2022/01/09 09:28:20;;;;;;;;;;;;;;;10.86;16.11;98112.38;6372055;27;20303;-63
2022/01/09 09:31:21;;;;;;;;;;;;;;;10.08;17.47;98127.19;6372735;27;19969;-62
2022/01/09 09:34:25;;;;;;;;;;;;;;;10.76;17.53;98147.03;6372571;27;19923;-64
2022/01/09 09:37:28;;;;;;;;;;;;;;;12.99;14.64;98150.03;6372208;27;19924;-63
2022/01/09 09:40:32;;;;;;;;;;;;;;;14.95;15.58;98176.72;6372570;27;19928;-64
2022/01/09 09:43:33;;;;;;;;;;;;;;;16.01;13.89;98184.09;6371867;27;20269;-63
2022/01/09 09:46:35;;;;;;;;;;;;;;;16.35;15.46;98187.16;6371748;27;19923;-63
2022/01/09 09:49:36;;;;;;;;;;;;;;;16.61;15.72;98183.56;6372354;27;20465;-63
2022/01/09 09:52:38;;;;;;;;;;;;;;;15.95;15.49;98184.50;6371908;27;20368;-63
2022/01/09 09:55:41;;;;;;;;;;;;;;;15.07;15.34;98191.84;6372169;27;19923;-63
2022/01/09 09:58:43;;;;;;;;;;;;;;;13.22;16.63;98195.50;6370959;27;19927;-63
2022/01/09 10:01:49;;;;;;;;;;;;;;;12.09;16.17;98197.00;6372120;27;20464;-64
2022/01/09 10:04:58;;;;;;;;;;;;;;;10.83;16.35;98207.28;6371843;27;20274;-63
2022/01/09 10:08:05;;;;;;;;;;;;;;;9.79;17.20;98208.13;6371853;27;19924;-63
2022/01/09 10:11:13;;;;;;;;;;;;;;;10.17;18.08;98210.97;6370634;27;19923;-62
2022/01/09 10:14:22;;;;;;;;;;;;;;;10.72;16.66;98208.63;6371813;27;20407;-63
2022/01/09 10:17:26;;;;;;;;;;;;;;;9.56;16.60;98216.06;6371108;27;19927;-63
2022/01/09 10:20:32;;;;;;;;;;;;;;;5.91;19.91;98211.97;6371652;27;20126;-63
2022/01/09 10:23:33;;;;;;;;;;;;;;;3.02;22.53;98204.41;6370809;27;19923;-64
2022/01/09 10:26:35;;;;;;;;;;;;;;;0.30;25.90;98194.53;6371490;27;19923;-64
2022/01/09 10:29:48;;;;;;;;;;;;;;;-0.76;27.72;98190.31;6370772;27;19923;-63
2022/01/09 10:32:53;;;;;;;;;;;;;;;-2.42;29.64;98206.75;6371301;27;19923;-63
2022/01/09 10:35:56;;;;;;;;;;;;;;;-3.32;31.12;98217.03;6371012;28;20316;-64
2022/01/09 10:39:02;;;;;;;;;;;;;;;-4.14;32.88;98219.38;6371164;28;19925;-64
2022/01/09 10:42:03;;;;;;;;;;;;;;;-4.61;33.01;98212.69;6370469;28;19952;-65
2022/01/09 10:45:23;;;;;;;;;;;;;;;-5.14;34.97;98220.31;6370551;28;20300;-64
2022/01/09 10:48:38;;;;;;;;;;;;;;;-5.34;35.29;98217.34;6371461;28;19924;-63
2022/01/09 10:51:42;;;;;;;;;;;;;;;-5.62;36.71;98231.31;6371350;28;19924;-67
2022/01/09 10:54:46;;;;;;;;;;;;;;;-6.55;37.20;98237.81;6353288;28;19930;-64
2022/01/09 10:57:50;;;;;;;;;;;;;;;-6.54;38.25;98242.09;6371151;28;19923;-64
2022/01/09 11:01:14;;;;;;;;;;;;;;;-6.78;39.21;98239.81;6371107;28;20397;-63
2022/01/09 11:04:22;;;;;;;;;;;;;;;-7.01;39.14;98252.00;6356521;28;19923;-63
2022/01/09 11:07:25;;;;;;;;;;;;;;;-7.47;40.31;98256.75;6370024;28;19927;-63
2022/01/09 11:10:28;;;;;;;;;;;;;;;-7.35;40.40;98269.00;6371160;28;19923;-65
2022/01/09 11:13:29;;;;;;;;;;;;;;;-7.82;40.92;98268.50;6370449;28;20296;-64
2022/01/09 11:16:33;;;;;;;;;;;;;;;-8.06;40.25;98278.00;6371196;28;19978;-65
2022/01/09 11:19:38;;;;;;;;;;;;;;;-8.11;40.88;98284.63;6370791;28;19929;-65
2022/01/09 11:22:39;;;;;;;;;;;;;;;-8.16;41.51;98277.69;6369660;28;19924;-64
2022/01/09 11:25:49;;;;;;;;;;;;;;;-8.26;40.89;98285.88;6370926;28;19923;-63
2022/01/09 11:28:51;;;;;;;;;;;;;;;-8.36;40.75;98286.41;6370224;28;20338;-64
2022/01/09 11:31:58;;;;;;;;;;;;;;;-8.26;41.67;98290.13;6371174;28;19930;-64
2022/01/09 11:35:08;;;;;;;;;;;;;;;-8.24;42.90;98294.44;6370776;28;19930;-64
2022/01/09 11:38:27;;;;;;;;;;;;;;;-8.17;43.49;98291.28;6370620;28;20402;-65
2022/01/09 11:41:31;;;;;;;;;;;;;;;-8.78;44.30;98302.06;6371784;27;20346;-64
2022/01/09 11:44:35;;;;;;;;;;;;;;;-8.95;44.75;98300.63;6375273;27;20340;-63
2022/01/09 11:47:46;;;;;;;;;;;;;;;-8.98;44.73;98290.31;6375316;27;20461;-64
2022/01/09 11:51:06;;;;;;;;;;;;;;;-9.10;45.38;98300.97;6375250;27;19924;-64
2022/01/09 11:54:16;;;;;;;;;;;;;;;-9.25;45.25;98301.31;6375215;27;19924;-64
2022/01/09 11:57:48;;;;;;;;;;;;;;;-9.39;45.09;98297.38;6375231;27;19969;-63
2022/01/09 12:00:51;;;;;;;;;;;;;;;-9.37;44.92;98301.75;6340174;27;19923;-64
2022/01/09 12:03:55;;;;;;;;;;;;;;;-9.51;45.30;98313.97;6374765;27;19924;-64
2022/01/09 12:07:00;;;;;;;;;;;;;;;-9.58;46.59;98306.03;6374696;27;19991;-64
2022/01/09 12:10:22;;;;;;;;;;;;;;;-9.55;45.46;98312.09;6373987;27;19923;-64
2022/01/09 12:13:36;;;;;;;;;;;;;;;-9.61;44.86;98316.97;6374077;27;19927;-64
2022/01/09 12:16:48;;;;;;;;;;;;;;;-9.78;45.68;98328.22;6373891;27;19923;-65
2022/01/09 12:20:03;;;;;;;;;;;;;;;-9.61;45.68;98327.16;6374229;27;19923;-63
2022/01/09 12:23:09;;;;;;;;;;;;;;;-9.74;46.17;98330.06;6374460;27;19929;-63
2022/01/09 12:26:26;;;;;;;;;;;;;;;-9.77;46.71;98324.84;6373644;27;19928;-64
2022/01/09 12:29:46;;;;;;;;;;;;;;;-9.89;47.29;98339.66;6374676;27;20315;-65
2022/01/09 12:32:50;;;;;;;;;;;;;;;-9.93;47.91;98343.78;6374343;27;19931;-64
2022/01/09 12:36:02;;;;;;;;;;;;;;;-10.35;48.15;98348.94;6373347;27;19923;-64
2022/01/09 12:39:07;;;;;;;;;;;;;;;-10.46;48.54;98356.13;6374535;27;19923;-64
2022/01/09 12:42:08;;;;;;;;;;;;;;;-10.37;48.88;98349.66;6373944;27;19924;-64
2022/01/09 12:45:10;;;;;;;;;;;;;;;-10.53;49.13;98353.25;6372941;27;19927;-64
2022/01/09 12:48:19;;;;;;;;;;;;;;;-10.73;49.49;98350.75;6373940;27;19923;-65
2022/01/09 12:51:20;;;;;;;;;;;;;;;-10.78;49.38;98361.53;6372950;27;19927;-65
2022/01/09 12:54:24;;;;;;;;;;;;;;;-10.73;49.46;98367.69;6372710;27;19923;-64
2022/01/09 12:57:25;;;;;;;;;;;;;;;-10.88;49.61;98376.41;6373750;27;20305;-65
2022/01/09 13:00:30;;;;;;;;;;;;;;;-10.42;49.97;98370.69;6373174;27;19958;-64
2022/01/09 13:03:31;;;;;;;;;;;;;;;-10.48;49.80;98383.16;6372737;27;20381;-64
2022/01/09 13:06:36;;;;;;;;;;;;;;;-10.72;50.21;98387.25;6373264;27;19923;-64
2022/01/09 13:09:40;;;;;;;;;;;;;;;-11.22;52.13;98383.34;6372844;27;20294;-64
2022/01/09 13:13:00;;;;;;;;;;;;;;;-11.26;51.05;98382.34;6373203;27;19924;-63
2022/01/09 13:16:11;;;;;;;;;;;;;;;-11.37;51.47;98378.47;6372758;27;19923;-64
2022/01/09 13:19:14;;;;;;;;;;;;;;;-11.28;51.31;98383.09;6372262;27;19924;-64
2022/01/09 13:22:21;;;;;;;;;;;;;;;-11.51;51.26;98390.53;6372866;27;19924;-64
2022/01/09 13:25:22;;;;;;;;;;;;;;;-11.31;51.77;98410.09;6371945;27;19934;-65
2022/01/09 13:28:28;;;;;;;;;;;;;;;-11.33;52.11;98391.34;6372796;27;20256;-64
2022/01/09 13:31:33;;;;;;;;;;;;;;;-11.55;52.50;98408.97;6372917;27;19930;-63
2022/01/09 13:34:38;;;;;;;;;;;;;;;-11.58;52.30;98418.97;6371886;27;20281;-64
2022/01/09 13:37:40;;;;;;;;;;;;;;;-11.58;52.50;98413.91;6371986;27;19923;-64
2022/01/09 13:40:41;;;;;;;;;;;;;;;-11.58;52.62;98421.53;6372655;27;20400;-64
2022/01/09 13:43:42;;;;;;;;;;;;;;;-11.76;52.53;98430.03;6372648;27;19923;-63
2022/01/09 13:46:58;;;;;;;;;;;;;;;-11.82;52.50;98429.75;6372521;27;19983;-63
2022/01/09 13:50:02;;;;;;;;;;;;;;;-11.82;52.84;98424.66;6372572;27;19924;-63
2022/01/09 13:53:08;;;;;;;;;;;;;;;-11.74;53.37;98426.72;6371746;27;19923;-63
2022/01/09 13:56:18;;;;;;;;;;;;;;;-11.94;53.38;98429.19;6372026;27;19924;-63
2022/01/09 13:59:19;;;;;;;;;;;;;;;-11.74;53.93;98431.78;6371304;27;19931;-64
2022/01/09 14:02:22;;;;;;;;;;;;;;;-11.85;54.38;98429.59;6371367;27;19923;-63
2022/01/09 14:05:27;;;;;;;;;;;;;;;-12.04;54.29;98429.53;6371267;27;19926;-64
2022/01/09 14:08:34;;;;;;;;;;;;;;;-12.51;54.56;98436.56;6372291;27;19923;-64
2022/01/09 14:11:35;;;;;;;;;;;;;;;-12.48;55.08;98444.31;6353715;27;20396;-64
2022/01/09 14:14:39;;;;;;;;;;;;;;;-12.59;54.85;98455.59;6372017;27;19930;-63
2022/01/09 14:17:51;;;;;;;;;;;;;;;-12.64;55.08;98443.47;6372059;27;19920;-64
2022/01/09 14:21:04;;;;;;;;;;;;;;;-12.76;55.65;98447.13;6370810;27;20265;-63
2022/01/09 14:24:07;;;;;;;;;;;;;;;-12.67;55.44;98452.66;6371339;27;20368;-64
2022/01/09 14:27:23;;;;;;;;;;;;;;;-12.71;55.42;98455.84;6372030;27;20307;-63
2022/01/09 14:30:44;;;;;;;;;;;;;;;-12.44;55.52;98465.63;6371828;27;19930;-64
2022/01/09 14:33:46;;;;;;;;;;;;;;;-12.66;55.59;98449.31;6371734;27;20521;-64
2022/01/09 14:36:48;;;;;;;;;;;;;;;-12.73;56.31;98461.63;6371759;27;19954;-63
2022/01/09 14:39:52;;;;;;;;;;;;;;;-12.79;56.63;98459.66;6337010;28;19924;-65
2022/01/09 14:43:00;;;;;;;;;;;;;;;-12.67;55.65;98467.88;6371734;28;20319;-63
2022/01/09 14:46:05;;;;;;;;;;;;;;;-12.57;55.89;98464.13;6371490;28;20360;-64
2022/01/09 14:49:09;;;;;;;;;;;;;;;-12.56;55.93;98460.81;6371456;28;19923;-64
2022/01/09 14:52:12;;;;;;;;;;;;;;;-12.71;56.15;98462.56;6371453;28;19923;-63
2022/01/09 14:55:13;;;;;;;;;;;;;;;-12.82;56.96;98474.69;6371314;28;20018;-63
2022/01/09 14:58:15;;;;;;;;;;;;;;;-12.79;56.71;98467.25;6371222;28;19935;-64
2022/01/09 15:01:17;;;;;;;;;;;;;;;-12.80;56.77;98475.63;6371315;28;19992;-64
2022/01/09 15:04:18;;;;;;;;;;;;;;;-12.82;56.46;98472.16;6370808;28;19923;-64
2022/01/09 15:07:21;;;;;;;;;;;;;;;-12.81;56.40;98478.97;6370580;28;20316;-64
2022/01/09 15:10:25;;;;;;;;;;;;;;;-12.80;55.73;98480.69;6370523;28;19934;-63
2022/01/09 15:13:28;;;;;;;;;;;;;;;-12.89;56.01;98475.16;6371312;28;19923;-64
2022/01/09 15:16:31;;;;;;;;;;;;;;;-12.98;56.48;98485.69;6373751;27;20312;-64
2022/01/09 15:19:35;;;;;;;;;;;;;;;-13.06;56.16;98501.28;6376323;27;19924;-64
2022/01/09 15:22:36;;;;;;;;;;;;;;;-13.18;56.07;98507.41;6375827;27;19924;-64
2022/01/09 15:25:38;;;;;;;;;;;;;;;-13.26;55.60;98503.63;6375401;27;19923;-64
2022/01/09 15:28:39;;;;;;;;;;;;;;;-13.27;56.13;98511.13;6375479;27;19937;-63
2022/01/09 15:31:45;;;;;;;;;;;;;;;-13.33;55.88;98516.78;6375661;27;19923;-65
2022/01/09 15:34:48;;;;;;;;;;;;;;;-13.42;55.78;98513.72;6375805;27;19924;-63
2022/01/09 15:37:52;;;;;;;;;;;;;;;-13.51;56.11;98515.75;6375268;27;20372;-64
2022/01/09 15:40:53;;;;;;;;;;;;;;;-13.60;55.96;98514.44;6374902;27;19923;-63
2022/01/09 15:43:56;;;;;;;;;;;;;;;-13.62;56.09;98518.53;6374634;27;19938;-63
2022/01/09 15:47:00;;;;;;;;;;;;;;;-13.67;56.42;98508.94;6375483;27;19930;-64
2022/01/09 15:50:01;;;;;;;;;;;;;;;-13.61;55.85;98519.44;6375761;27;19930;-64
2022/01/09 15:53:02;;;;;;;;;;;;;;;-13.59;56.33;98518.72;6375305;27;20447;-63